Time;durP1;ratioP1;P1;durP2;ratioP2;P2;SDS_P1;SDS_P2;PMS_P1;PMS_P2;Temp;Humidity;BMP_temperature;BMP_pressure;BME280_temperature;BME280_humidity;BME280_pressure;Samples;Min_cycle;Max_cycle;Signal;HPM_P1;HPM_P2
2022/07/11 00:03:06;;;;;;;5.53;1.40;;;16.90;88.60;;;;;;6863676;28;20432;-80
2022/07/11 00:06:27;;;;;;;3.38;1.45;;;16.80;89.20;;;;;;6863051;28;20498;-78
2022/07/11 00:09:50;;;;;;;3.17;1.10;;;16.90;89.90;;;;;;6860398;28;20553;-79
2022/07/11 00:13:12;;;;;;;3.20;1.03;;;17.00;90.10;;;;;;6862509;28;20542;-80
2022/07/11 00:16:35;;;;;;;4.40;1.35;;;17.10;88.60;;;;;;6862777;28;20443;-80
2022/07/11 00:19:58;;;;;;;4.30;1.40;;;17.00;88.70;;;;;;6861434;28;20435;-80
2022/07/11 00:23:20;;;;;;;4.80;1.52;;;16.90;89.80;;;;;;6862503;28;20465;-79
2022/07/11 00:26:42;;;;;;;4.05;1.33;;;16.90;89.50;;;;;;6861865;28;20452;-77
2022/07/11 00:30:05;;;;;;;5.28;1.50;;;16.80;89.30;;;;;;6862175;28;20436;-81
2022/07/11 00:33:29;;;;;;;4.47;1.50;;;16.80;90.30;;;;;;6874135;28;20775;-80
2022/07/11 00:36:51;;;;;;;5.95;1.70;;;16.70;90.10;;;;;;6862196;28;20806;-78
2022/07/11 00:40:13;;;;;;;5.00;1.50;;;16.60;90.20;;;;;;6861719;28;20806;-79
2022/07/11 00:43:37;;;;;;;3.33;1.25;;;16.50;90.50;;;;;;6889869;28;20474;-79
2022/07/11 00:46:59;;;;;;;4.57;1.40;;;16.50;90.20;;;;;;6862772;28;20471;-80
2022/07/11 00:50:23;;;;;;;4.15;1.42;;;16.70;90.60;;;;;;6863328;28;20436;-80
2022/07/11 00:53:45;;;;;;;4.15;1.30;;;16.70;90.00;;;;;;6875596;28;20444;-78
2022/07/11 00:57:07;;;;;;;3.58;1.17;;;16.90;89.40;;;;;;6861940;28;20435;-80
2022/07/11 01:00:30;;;;;;;3.53;1.20;;;16.90;88.10;;;;;;6861661;28;20477;-79
2022/07/11 01:03:52;;;;;;;4.28;1.20;;;16.80;88.40;;;;;;6859054;28;20934;-78
2022/07/11 01:07:16;;;;;;;3.75;1.40;;;16.70;89.20;;;;;;6862376;28;20586;-78
2022/07/11 01:10:38;;;;;;;3.83;1.20;;;16.80;89.00;;;;;;6861458;28;20463;-79
2022/07/11 01:14:00;;;;;;;5.00;1.20;;;16.90;88.70;;;;;;6859538;28;20779;-80
2022/07/11 01:17:22;;;;;;;3.50;1.30;;;16.90;88.70;;;;;;6860886;28;20853;-80
2022/07/11 01:20:44;;;;;;;3.95;1.30;;;16.90;87.70;;;;;;6873153;28;20927;-80
2022/07/11 01:24:09;;;;;;;5.18;1.40;;;16.70;88.70;;;;;;6861699;28;20466;-78
2022/07/11 01:27:32;;;;;;;4.50;1.30;;;16.60;89.70;;;;;;6861369;28;20440;-78
2022/07/11 01:30:54;;;;;;;3.45;1.20;;;16.50;90.60;;;;;;6861525;28;20830;-80
2022/07/11 01:34:16;;;;;;;3.78;1.40;;;16.50;90.70;;;;;;6860206;28;20475;-78
2022/07/11 01:37:38;;;;;;;4.45;1.25;;;16.50;90.70;;;;;;6859610;28;20471;-79
2022/07/11 01:41:02;;;;;;;4.30;1.40;;;16.40;91.00;;;;;;6860091;28;20475;-78
2022/07/11 01:44:24;;;;;;;4.63;1.40;;;16.30;91.20;;;;;;6860331;28;20930;-79
2022/07/11 01:47:46;;;;;;;5.57;1.55;;;16.30;91.50;;;;;;6859675;28;20479;-80
2022/07/11 01:51:08;;;;;;;3.53;1.27;;;16.30;91.20;;;;;;6860398;28;20547;-79
2022/07/11 01:54:30;;;;;;;5.78;1.50;;;16.50;91.00;;;;;;6859873;28;20499;-78
2022/07/11 01:57:54;;;;;;;5.72;1.25;;;16.60;90.80;;;;;;6860053;28;20849;-79
2022/07/11 02:01:16;;;;;;;3.10;1.10;;;16.60;90.10;;;;;;6860793;28;20435;-80
2022/07/11 02:04:38;;;;;;;3.17;1.20;;;16.60;90.10;;;;;;6859833;28;20447;-80
2022/07/11 02:08:12;;;;;;;3.85;1.20;;;16.60;90.10;;;;;;6859215;28;20561;-79
2022/07/11 02:11:34;;;;;;;5.07;1.55;;;16.50;90.00;;;;;;6858209;28;20779;-79
2022/07/11 02:14:57;;;;;;;3.97;1.30;;;16.40;90.30;;;;;;6860746;28;20431;-80
2022/07/11 02:18:21;;;;;;;2.87;1.20;;;16.30;90.30;;;;;;6857977;28;20454;-79
2022/07/11 02:21:43;;;;;;;4.30;1.15;;;16.40;90.60;;;;;;6860028;28;20464;-79
2022/07/11 02:25:07;;;;;;;4.97;1.33;;;16.40;90.40;;;;;;6860338;28;20482;-79
2022/07/11 02:28:29;;;;;;;3.50;1.27;;;16.40;90.30;;;;;;6859573;28;20497;-78
2022/07/11 02:31:52;;;;;;;4.47;1.50;;;16.50;90.80;;;;;;6859901;28;20936;-79
2022/07/11 02:35:14;;;;;;;4.03;1.20;;;16.60;90.50;;;;;;6860135;28;20444;-78
2022/07/11 02:38:36;;;;;;;3.17;1.20;;;16.60;90.10;;;;;;6858077;28;20439;-79
2022/07/11 02:41:58;;;;;;;3.33;1.20;;;16.50;90.00;;;;;;6858638;28;20439;-81
2022/07/11 02:45:20;;;;;;;4.00;1.20;;;16.40;90.40;;;;;;6862000;28;20831;-80
2022/07/11 02:48:44;;;;;;;4.22;1.33;;;16.20;90.70;;;;;;6880807;28;20503;-78
2022/07/11 02:52:07;;;;;;;4.78;1.40;;;16.20;91.00;;;;;;6865039;28;20442;-78
2022/07/11 02:55:30;;;;;;;4.00;1.48;;;16.20;90.80;;;;;;6864112;28;20447;-80
2022/07/11 02:58:52;;;;;;;3.63;1.27;;;16.30;90.80;;;;;;6863222;28;20448;-81
2022/07/11 03:02:14;;;;;;;5.50;1.38;;;16.20;91.00;;;;;;6864872;28;20443;-79
2022/07/11 03:05:38;;;;;;;4.57;1.30;;;16.30;91.00;;;;;;6865225;28;20519;-80
2022/07/11 03:09:00;;;;;;;3.75;1.30;;;16.30;91.10;;;;;;6881259;28;20899;-77
2022/07/11 03:12:22;;;;;;;5.30;1.30;;;16.30;90.80;;;;;;6864014;28;20686;-79
2022/07/11 03:15:44;;;;;;;3.85;1.20;;;16.30;90.70;;;;;;6864343;28;20440;-78
2022/07/11 03:19:06;;;;;;;4.47;1.48;;;16.30;90.90;;;;;;6863380;28;20888;-77
2022/07/11 03:22:29;;;;;;;5.07;1.40;;;16.20;91.20;;;;;;6864395;28;20502;-78
2022/07/11 03:25:51;;;;;;;5.77;1.30;;;16.20;91.50;;;;;;6864193;28;20880;-77
2022/07/11 03:29:13;;;;;;;4.07;1.30;;;16.20;91.30;;;;;;6860993;28;20443;-76
2022/07/11 03:32:35;;;;;;;4.03;1.23;;;16.00;91.20;;;;;;6863758;28;20495;-79
2022/07/11 03:35:57;;;;;;;4.72;1.40;;;16.10;91.20;;;;;;6864283;28;20472;-77
2022/07/11 03:39:21;;;;;;;5.43;1.33;;;16.10;91.30;;;;;;6862411;28;20475;-77
2022/07/11 03:42:44;;;;;;;4.07;1.50;;;16.00;91.50;;;;;;6866168;28;20489;-79
2022/07/11 03:46:07;;;;;;;3.60;1.27;;;16.20;91.90;;;;;;6864255;28;20794;-79
2022/07/11 03:49:29;;;;;;;4.07;1.30;;;16.30;91.50;;;;;;6861540;28;20455;-76
2022/07/11 03:52:51;;;;;;;4.87;1.17;;;16.30;91.00;;;;;;6863627;28;20797;-77
2022/07/11 03:56:16;;;;;;;3.78;1.30;;;16.20;91.40;;;;;;6861985;28;20616;-78
2022/07/11 03:59:38;;;;;;;4.70;1.58;;;16.10;91.40;;;;;;6863479;28;20898;-75
2022/07/11 04:03:01;;;;;;;5.22;1.50;;;16.20;91.10;;;;;;6863538;28;20443;-77
2022/07/11 04:06:23;;;;;;;4.93;1.30;;;16.00;91.50;;;;;;6862097;28;20579;-78
2022/07/11 04:09:45;;;;;;;5.57;1.30;;;16.00;91.50;;;;;;6865196;28;20515;-75
2022/07/11 04:13:08;;;;;;;5.97;1.60;;;16.10;91.60;;;;;;6890765;28;20434;-78
2022/07/11 04:16:30;;;;;;;3.90;1.30;;;16.20;91.60;;;;;;6890966;28;20832;-77
2022/07/11 04:19:53;;;;;;;3.00;1.30;;;16.10;91.40;;;;;;6871745;28;21013;-78
2022/07/11 04:23:15;;;;;;;4.25;1.40;;;16.10;91.50;;;;;;6863189;28;20454;-76
2022/07/11 04:26:37;;;;;;;4.18;1.30;;;16.10;91.60;;;;;;6862787;28;20487;-75
2022/07/11 04:30:00;;;;;;;3.72;1.35;;;16.10;91.90;;;;;;6862907;28;20939;-76
2022/07/11 04:33:22;;;;;;;3.53;1.30;;;16.10;91.90;;;;;;6862305;28;20557;-75
2022/07/11 04:36:45;;;;;;;3.65;1.23;;;16.20;91.90;;;;;;6862969;28;20778;-77
2022/07/11 04:40:08;;;;;;;3.40;1.40;;;16.30;91.90;;;;;;6862178;28;20504;-76
2022/07/11 04:43:30;;;;;;;4.80;1.57;;;16.30;92.10;;;;;;6862874;28;20431;-77
2022/07/11 04:46:54;;;;;;;3.97;1.20;;;16.40;91.40;;;;;;6862059;28;20968;-76
2022/07/11 04:50:16;;;;;;;3.60;1.40;;;16.40;91.70;;;;;;6830334;28;20995;-77
2022/07/11 04:53:38;;;;;;;4.05;1.40;;;16.40;91.50;;;;;;6835586;29;20477;-78
2022/07/11 04:57:00;;;;;;;3.95;1.40;;;16.40;91.60;;;;;;6835662;28;20463;-78
2022/07/11 05:00:22;;;;;;;4.10;1.50;;;16.40;91.60;;;;;;6835585;29;20434;-77
2022/07/11 05:03:45;;;;;;;5.30;1.40;;;16.40;91.70;;;;;;6859919;28;20463;-76
2022/07/11 05:07:07;;;;;;;4.28;1.30;;;16.40;91.90;;;;;;6888870;28;20439;-78
2022/07/11 05:10:31;;;;;;;3.67;1.20;;;16.40;92.20;;;;;;6888551;28;20943;-76
2022/07/11 05:13:53;;;;;;;4.75;1.33;;;16.40;92.10;;;;;;6888438;28;20483;-78
2022/07/11 05:17:15;;;;;;;4.30;1.42;;;16.40;92.20;;;;;;6886292;28;20482;-77
2022/07/11 05:20:38;;;;;;;4.22;1.40;;;16.50;92.10;;;;;;6888131;28;20437;-78
2022/07/11 05:24:01;;;;;;;5.35;1.65;;;16.40;92.10;;;;;;6887064;28;20829;-76
2022/07/11 05:27:23;;;;;;;5.25;1.40;;;16.50;92.20;;;;;;6888163;28;20430;-79
2022/07/11 05:30:45;;;;;;;4.60;1.60;;;16.50;92.30;;;;;;6886739;28;20547;-77
2022/07/11 05:34:07;;;;;;;3.67;1.40;;;16.50;92.30;;;;;;6885929;28;20978;-78
2022/07/11 05:37:30;;;;;;;4.10;1.50;;;16.50;92.70;;;;;;6887929;28;20944;-75
2022/07/11 05:40:52;;;;;;;4.35;1.40;;;16.60;92.30;;;;;;6887794;28;20511;-78
2022/07/11 05:44:14;;;;;;;4.57;1.48;;;16.60;92.30;;;;;;6887952;28;20934;-78
2022/07/11 05:47:36;;;;;;;4.70;1.43;;;16.70;92.30;;;;;;6885727;28;20481;-76
2022/07/11 05:50:58;;;;;;;4.85;1.40;;;16.80;92.30;;;;;;6888152;28;20480;-79
2022/07/11 05:54:21;;;;;;;5.30;1.88;;;16.80;92.10;;;;;;6887885;28;20437;-77
2022/07/11 05:57:44;;;;;;;4.63;1.50;;;16.80;92.30;;;;;;6887715;28;20476;-76
2022/07/11 06:01:06;;;;;;;4.87;1.60;;;16.80;92.10;;;;;;6886134;28;20916;-76
2022/07/11 06:04:28;;;;;;;5.10;1.50;;;16.80;92.20;;;;;;6884467;28;20479;-76
2022/07/11 06:11:39;;;;;;;6.67;1.50;;;16.90;92.60;;;;;;6863790;28;20426;-75
2022/07/11 06:15:01;;;;;;;4.70;1.50;;;16.90;92.50;;;;;;6883474;28;20522;-76
2022/07/11 06:18:25;;;;;;;5.15;1.50;;;17.00;92.90;;;;;;6890107;28;20469;-77
2022/07/11 06:21:47;;;;;;;4.95;1.60;;;17.00;92.30;;;;;;6889183;28;20436;-77
2022/07/11 06:25:10;;;;;;;4.57;1.60;;;17.10;92.30;;;;;;6881885;28;20873;-77
2022/07/11 06:28:34;;;;;;;4.27;1.50;;;17.20;92.30;;;;;;6887240;28;20903;-76
2022/07/11 06:31:56;;;;;;;4.88;1.63;;;17.30;92.30;;;;;;6887327;28;20461;-79
2022/07/11 06:35:18;;;;;;;4.07;1.57;;;17.20;92.50;;;;;;6887117;28;20426;-78
2022/07/11 06:38:40;;;;;;;4.45;1.50;;;17.40;92.50;;;;;;6887873;28;20934;-76
2022/07/11 06:42:03;;;;;;;4.97;1.67;;;17.40;92.10;;;;;;6882769;28;20442;-77
2022/07/11 06:45:26;;;;;;;5.73;1.80;;;17.30;92.40;;;;;;6886793;28;20466;-78
2022/07/11 06:48:48;;;;;;;3.87;1.73;;;17.40;92.90;;;;;;6884334;28;20495;-75
2022/07/11 06:52:10;;;;;;;4.97;1.80;;;17.50;92.80;;;;;;6886639;28;20527;-78
2022/07/11 06:55:33;;;;;;;5.53;1.80;;;17.50;92.80;;;;;;6872236;28;20478;-78
2022/07/11 06:58:55;;;;;;;4.63;1.80;;;17.60;92.70;;;;;;6859396;28;20485;-76
2022/07/11 07:02:18;;;;;;;4.38;1.92;;;17.70;93.00;;;;;;6859451;28;20942;-77
2022/07/11 07:05:40;;;;;;;4.43;1.88;;;17.90;92.90;;;;;;6857904;28;20491;-78
2022/07/11 07:09:03;;;;;;;5.60;2.35;;;18.00;92.60;;;;;;6858845;28;20494;-77
2022/07/11 07:12:25;;;;;;;4.87;2.20;;;18.10;92.60;;;;;;6860174;28;20431;-77
2022/07/11 07:15:47;;;;;;;6.35;2.30;;;18.30;92.40;;;;;;6861359;28;20435;-75
2022/07/11 07:19:11;;;;;;;5.35;2.03;;;18.30;92.10;;;;;;6860816;28;20760;-76
2022/07/11 07:22:33;;;;;;;4.65;1.95;;;18.30;92.30;;;;;;6858954;28;20926;-77
2022/07/11 07:25:55;;;;;;;4.97;2.17;;;18.40;92.40;;;;;;6859584;28;20432;-76
2022/07/11 07:29:17;;;;;;;4.70;2.03;;;18.30;92.20;;;;;;6860804;28;20455;-77
2022/07/11 07:32:39;;;;;;;4.88;2.25;;;18.30;92.50;;;;;;6865674;28;20456;-77
2022/07/11 07:36:02;;;;;;;5.40;1.90;;;18.40;92.50;;;;;;6864924;28;20490;-78
2022/07/11 07:39:24;;;;;;;4.45;2.15;;;18.50;92.30;;;;;;6866473;28;20771;-75
2022/07/11 07:42:47;;;;;;;4.97;2.10;;;18.60;92.10;;;;;;6865676;28;20906;-75
2022/07/11 07:46:10;;;;;;;5.07;2.00;;;18.50;92.50;;;;;;6863934;28;20467;-77
2022/07/11 07:49:32;;;;;;;4.72;2.10;;;18.70;92.40;;;;;;6864838;28;20451;-78
2022/07/11 07:52:55;;;;;;;5.57;2.27;;;18.90;92.50;;;;;;6867340;28;20447;-77
2022/07/11 07:56:17;;;;;;;5.70;2.25;;;19.10;92.10;;;;;;6868795;28;20492;-76
2022/07/11 07:59:39;;;;;;;4.35;2.00;;;19.10;91.60;;;;;;6867031;28;20479;-78
2022/07/11 08:03:05;;;;;;;4.60;1.95;;;19.30;91.70;;;;;;6867701;28;20451;-78
2022/07/11 08:06:27;;;;;;;5.85;2.10;;;19.30;91.90;;;;;;6864382;28;20448;-76
2022/07/11 08:09:51;;;;;;;4.45;2.20;;;19.30;91.40;;;;;;6869119;28;20457;-77
2022/07/11 08:13:13;;;;;;;4.60;2.10;;;19.40;90.90;;;;;;6873754;28;20795;-77
2022/07/11 08:16:35;;;;;;;4.57;2.05;;;19.50;90.70;;;;;;6868042;28;21083;-77
2022/07/11 08:19:58;;;;;;;5.43;2.17;;;19.50;90.80;;;;;;6866606;28;20432;-76
2022/07/11 08:23:20;;;;;;;4.40;1.90;;;19.40;91.30;;;;;;6866360;28;20487;-76
2022/07/11 08:26:43;;;;;;;3.92;1.80;;;19.30;91.30;;;;;;6864525;28;20440;-76
2022/07/11 08:30:07;;;;;;;3.50;1.70;;;19.40;91.20;;;;;;6863336;28;20829;-79
2022/07/11 08:33:29;;;;;;;5.32;1.80;;;19.40;91.10;;;;;;6890029;28;20442;-75
2022/07/11 08:36:51;;;;;;;4.82;1.80;;;19.40;91.20;;;;;;6868492;28;20459;-77
2022/07/11 08:40:13;;;;;;;3.90;1.60;;;19.40;91.30;;;;;;6862536;28;20471;-77
2022/07/11 08:43:37;;;;;;;3.65;1.40;;;19.40;90.50;;;;;;6864699;28;20486;-78
2022/07/11 08:47:00;;;;;;;5.03;1.77;;;19.50;90.80;;;;;;6878641;28;20447;-78
2022/07/11 08:50:23;;;;;;;4.95;2.30;;;19.60;90.90;;;;;;6862261;28;20447;-77
2022/07/11 08:53:45;;;;;;;4.15;1.48;;;19.70;91.00;;;;;;6862674;28;20432;-77
2022/07/11 08:57:07;;;;;;;3.13;1.38;;;19.90;90.70;;;;;;6862297;28;20439;-77
2022/07/11 09:00:30;;;;;;;2.55;1.00;;;19.90;90.80;;;;;;6864604;28;20439;-80
2022/07/11 09:03:54;;;;;;;2.60;1.00;;;20.00;90.70;;;;;;6867092;28;20906;-78
2022/07/11 09:07:16;;;;;;;2.30;0.90;;;20.20;90.20;;;;;;6865722;28;20480;-78
2022/07/11 09:10:41;;;;;;;2.28;0.90;;;20.40;89.60;;;;;;6864789;28;20452;-77
2022/07/11 09:14:12;;;;;;;3.80;0.90;;;20.50;85.60;;;;;;6838879;28;20445;-77
2022/07/11 09:17:35;;;;;;;1.73;0.75;;;20.70;85.40;;;;;;6838357;29;20441;-78
2022/07/11 09:28:33;;;;;;;1.55;0.50;;;21.00;82.00;;;;;;6849172;29;20438;-80
2022/07/11 09:31:55;;;;;;;1.17;0.40;;;21.10;80.20;;;;;;6862397;28;20502;-80
2022/07/11 09:35:19;;;;;;;1.25;0.60;;;21.20;78.80;;;;;;6870277;28;20428;-77
2022/07/11 09:38:57;;;;;;;2.33;0.77;;;21.30;79.30;;;;;;6866746;28;20436;-76
2022/07/11 09:42:19;;;;;;;1.10;0.50;;;21.50;80.90;;;;;;6874554;28;20499;-79
2022/07/11 09:45:42;;;;;;;1.13;0.50;;;21.60;77.70;;;;;;6903520;28;20454;-78
2022/07/11 09:49:04;;;;;;;1.53;0.70;;;21.60;76.20;;;;;;6900305;28;20446;-80
2022/07/11 09:52:28;;;;;;;1.55;0.40;;;21.50;77.30;;;;;;6883335;28;20431;-79
2022/07/11 09:55:50;;;;;;;2.20;0.50;;;21.70;75.10;;;;;;6869496;28;20441;-77
2022/07/11 09:59:13;;;;;;;2.33;0.70;;;21.80;74.00;;;;;;6862259;28;20432;-78
2022/07/11 10:02:36;;;;;;;2.17;0.75;;;21.80;75.20;;;;;;6860369;28;20446;-78
2022/07/11 10:05:58;;;;;;;4.13;0.70;;;21.90;76.60;;;;;;6859227;28;20436;-77
2022/07/11 10:09:22;;;;;;;1.33;0.57;;;21.90;75.00;;;;;;6860189;28;20483;-77
2022/07/11 10:12:44;;;;;;;2.03;0.65;;;22.00;75.10;;;;;;6887168;28;20426;-79
2022/07/11 10:16:18;;;;;;;2.65;0.60;;;21.90;76.40;;;;;;6864430;28;20940;-77
2022/07/11 10:19:50;;;;;;;2.08;0.70;;;22.10;77.50;;;;;;6834887;28;20449;-79
2022/07/11 10:23:21;;;;;;;2.05;0.70;;;22.30;74.80;;;;;;6849197;28;20440;-78
2022/07/11 10:26:53;;;;;;;2.05;0.70;;;22.20;77.10;;;;;;6873524;28;20483;-78
2022/07/11 10:30:44;;;;;;;2.05;0.65;;;22.40;75.00;;;;;;6829283;29;20510;-77
2022/07/11 10:34:10;;;;;;;2.53;0.80;;;22.50;74.30;;;;;;6855463;28;20447;-77
2022/07/11 10:37:48;;;;;;;2.00;0.70;;;22.60;74.20;;;;;;6856402;28;20440;-79
2022/07/11 10:41:22;;;;;;;1.83;0.70;;;22.70;75.80;;;;;;6854403;28;20535;-79
2022/07/11 10:44:56;;;;;;;2.20;0.80;;;22.60;72.90;;;;;;6883166;28;20434;-75
2022/07/11 10:48:19;;;;;;;2.78;0.80;;;22.60;76.00;;;;;;6883115;28;20521;-77
2022/07/11 10:51:56;;;;;;;3.90;0.90;;;22.70;74.50;;;;;;6882723;28;20508;-77
2022/07/11 10:55:34;;;;;;;1.90;0.82;;;22.90;75.60;;;;;;6868356;28;20452;-76
2022/07/11 10:59:12;;;;;;;3.40;1.02;;;22.90;76.30;;;;;;6855974;28;20992;-75
2022/07/11 11:03:04;;;;;;;3.75;1.20;;;23.10;74.90;;;;;;6854753;28;20478;-79
2022/07/11 11:06:58;;;;;;;2.72;1.00;;;23.20;75.30;;;;;;6859488;28;20810;-78
2022/07/11 11:10:52;;;;;;;2.63;1.00;;;23.20;73.70;;;;;;6860037;28;20495;-78
2022/07/11 11:14:28;;;;;;;3.05;1.08;;;23.30;73.00;;;;;;6882508;28;20552;-77
2022/07/11 11:17:51;;;;;;;2.88;1.00;;;23.40;72.70;;;;;;6860601;28;20499;-78
2022/07/11 11:21:26;;;;;;;2.35;0.90;;;23.50;72.00;;;;;;6860661;28;20941;-78
2022/07/11 11:24:51;;;;;;;3.78;1.00;;;23.60;71.60;;;;;;6859883;28;20938;-79
2022/07/11 11:28:22;;;;;;;1.83;0.80;;;23.50;71.40;;;;;;6860574;28;20440;-79
2022/07/11 11:31:51;;;;;;;2.05;0.90;;;23.60;71.10;;;;;;6862970;28;20447;-78
2022/07/11 11:35:17;;;;;;;2.97;1.00;;;23.60;70.90;;;;;;6887269;28;20580;-78
2022/07/11 11:38:42;;;;;;;2.55;0.90;;;23.50;71.20;;;;;;6887519;28;20915;-79
2022/07/11 11:42:14;;;;;;;2.40;0.90;;;23.50;71.70;;;;;;6863004;28;20444;-79
2022/07/11 11:45:36;;;;;;;3.10;1.00;;;23.30;71.80;;;;;;6860075;28;20448;-80
2022/07/11 11:49:00;;;;;;;2.47;0.90;;;23.60;70.60;;;;;;6859172;28;20443;-77
2022/07/11 11:52:24;;;;;;;2.75;0.88;;;23.40;71.30;;;;;;6858737;28;20436;-77
2022/07/11 11:55:47;;;;;;;3.45;1.10;;;23.60;71.40;;;;;;6858939;28;20502;-77
2022/07/11 11:59:12;;;;;;;3.00;1.00;;;23.40;73.00;;;;;;6858500;28;20444;-77
2022/07/11 12:02:35;;;;;;;3.20;1.00;;;23.60;72.00;;;;;;6859574;28;20436;-79
2022/07/11 12:05:58;;;;;;;2.83;1.10;;;23.60;72.40;;;;;;6858682;28;20444;-78
2022/07/11 12:09:46;;;;;;;3.45;1.10;;;23.90;70.50;;;;;;6859634;28;20440;-78
2022/07/11 12:13:05;;;;;;;4.45;1.10;;;23.80;71.00;;;;;;6859549;28;20563;-77
2022/07/11 12:16:41;;;;;;;2.85;1.02;;;24.00;72.00;;;;;;6858905;28;20501;-79
2022/07/11 12:20:04;;;;;;;2.80;1.10;;;24.10;72.50;;;;;;6858590;28;20502;-79
2022/07/11 12:23:26;;;;;;;2.47;1.02;;;24.20;70.90;;;;;;6859160;28;20444;-79
2022/07/11 12:26:50;;;;;;;2.75;1.10;;;24.10;71.80;;;;;;6857978;28;20523;-77
2022/07/11 12:30:24;;;;;;;4.13;1.27;;;23.90;71.70;;;;;;6857653;28;20922;-77
2022/07/11 12:33:52;;;;;;;4.40;1.20;;;24.10;73.30;;;;;;6858841;28;20456;-80
2022/07/11 12:37:17;;;;;;;3.60;1.17;;;24.30;72.60;;;;;;6859276;28;20826;-77
2022/07/11 12:40:39;;;;;;;2.53;1.05;;;24.20;71.40;;;;;;6858833;28;20483;-77
2022/07/11 12:47:46;;;;;;;3.92;1.20;;;24.10;72.30;;;;;;6864990;28;20435;-77
2022/07/11 12:51:08;;;;;;;3.60;1.30;;;24.30;71.60;;;;;;6859829;28;20822;-76
2022/07/11 12:54:33;;;;;;;3.78;1.10;;;24.30;71.30;;;;;;6856697;28;20540;-78
2022/07/11 12:58:05;;;;;;;3.05;1.17;;;24.50;70.60;;;;;;6858764;28;20436;-79
2022/07/11 13:01:29;;;;;;;2.78;1.10;;;24.70;70.70;;;;;;6858453;28;20475;-77
2022/07/11 13:04:53;;;;;;;2.70;1.13;;;24.50;71.20;;;;;;6857135;28;20439;-78
2022/07/11 13:08:44;;;;;;;3.77;1.30;;;24.60;69.80;;;;;;6857999;28;20522;-77
2022/07/11 13:12:07;;;;;;;3.35;1.20;;;24.50;71.10;;;;;;6884855;28;20796;-78
2022/07/11 13:15:29;;;;;;;3.38;1.38;;;24.40;72.00;;;;;;6884668;28;20494;-80
2022/07/11 13:18:53;;;;;;;2.35;1.00;;;24.60;70.50;;;;;;6869359;28;20482;-78
2022/07/11 13:22:15;;;;;;;2.53;1.20;;;24.50;71.00;;;;;;6858183;28;20447;-77
2022/07/11 13:25:37;;;;;;;2.95;1.20;;;24.30;71.00;;;;;;6857841;28;20460;-80
2022/07/11 13:29:01;;;;;;;3.50;1.27;;;24.90;71.40;;;;;;6857281;28;20443;-79
2022/07/11 13:32:23;;;;;;;2.88;1.25;;;24.90;70.70;;;;;;6864268;28;20539;-80
2022/07/11 13:35:47;;;;;;;3.20;1.20;;;25.20;69.90;;;;;;6857781;28;20443;-78
2022/07/11 13:39:10;;;;;;;2.83;1.20;;;25.60;70.00;;;;;;6883186;28;20516;-76
2022/07/11 13:42:33;;;;;;;2.83;1.17;;;25.60;68.70;;;;;;6883894;28;20446;-78
2022/07/11 13:45:55;;;;;;;2.90;1.33;;;25.60;67.60;;;;;;6856881;28;20834;-79
2022/07/11 13:49:17;;;;;;;3.13;1.25;;;25.50;67.80;;;;;;6864136;28;20490;-78
2022/07/11 13:52:46;;;;;;;2.70;1.30;;;25.70;66.20;;;;;;6855263;28;20893;-78
2022/07/11 13:56:10;;;;;;;2.80;1.30;;;25.70;67.10;;;;;;6883543;28;20445;-78
2022/07/11 13:59:32;;;;;;;2.75;1.27;;;25.80;68.20;;;;;;6875276;28;21014;-79
2022/07/11 14:02:54;;;;;;;3.40;1.30;;;25.60;67.60;;;;;;6883310;28;20869;-78
2022/07/11 14:06:16;;;;;;;4.37;1.43;;;25.50;67.30;;;;;;6861063;28;20483;-79
2022/07/11 14:09:40;;;;;;;2.80;1.30;;;25.40;68.30;;;;;;6859094;28;20480;-78
2022/07/11 14:13:02;;;;;;;2.97;1.30;;;25.20;67.70;;;;;;6855730;28;20480;-79
2022/07/11 14:16:24;;;;;;;3.00;1.20;;;25.30;67.70;;;;;;6857346;28;20432;-79
2022/07/11 14:19:46;;;;;;;3.20;1.30;;;25.50;66.80;;;;;;6858325;28;20491;-80
2022/07/11 14:23:09;;;;;;;3.80;1.50;;;25.30;66.30;;;;;;6882101;28;20434;-79
2022/07/11 14:26:33;;;;;;;3.25;1.40;;;25.40;65.50;;;;;;6858980;28;20438;-79
2022/07/11 14:29:55;;;;;;;3.50;1.40;;;25.30;66.10;;;;;;6853478;28;21288;-80
2022/07/11 14:33:18;;;;;;;2.90;1.37;;;25.00;69.40;;;;;;6858833;28;20542;-78
2022/07/11 14:36:41;;;;;;;3.15;1.35;;;25.10;69.40;;;;;;6859501;28;20520;-77
2022/07/11 14:40:03;;;;;;;2.90;1.30;;;25.40;67.60;;;;;;6854691;28;20443;-79
2022/07/11 14:43:28;;;;;;;3.40;1.40;;;25.30;69.30;;;;;;6854419;28;20772;-78
2022/07/11 14:46:50;;;;;;;2.78;1.30;;;25.40;69.60;;;;;;6837897;28;20448;-79
2022/07/11 14:50:12;;;;;;;2.78;1.50;;;25.30;69.30;;;;;;6855833;28;20455;-79
2022/07/11 14:53:35;;;;;;;3.67;1.30;;;25.60;69.80;;;;;;6853596;28;20444;-78
2022/07/11 14:56:58;;;;;;;4.30;1.45;;;25.30;68.70;;;;;;6855075;28;20467;-78
2022/07/11 15:00:22;;;;;;;3.28;1.33;;;25.30;66.90;;;;;;6857376;28;20854;-76
2022/07/11 15:03:44;;;;;;;3.10;1.40;;;25.50;66.70;;;;;;6853861;28;20535;-78
2022/07/11 15:14:26;;;;;;;3.67;1.50;;;24.80;68.90;;;;;;6829021;28;20426;-78
2022/07/11 15:17:50;;;;;;;3.30;1.50;;;24.80;70.30;;;;;;6850773;28;20443;-79
2022/07/11 15:21:12;;;;;;;3.00;1.60;;;25.00;68.60;;;;;;6855874;28;20468;-78
2022/07/11 15:24:35;;;;;;;3.00;1.42;;;25.00;68.60;;;;;;6854534;28;20440;-79
2022/07/11 15:27:57;;;;;;;3.00;1.40;;;25.00;68.30;;;;;;6862179;28;20928;-78
2022/07/11 15:31:20;;;;;;;4.97;1.60;;;25.20;68.50;;;;;;6869646;28;21018;-77
2022/07/11 15:34:43;;;;;;;5.77;1.60;;;25.00;69.10;;;;;;6855058;28;20787;-78
2022/07/11 15:38:05;;;;;;;3.03;1.60;;;25.00;70.10;;;;;;6855276;28;20472;-78
2022/07/11 15:41:27;;;;;;;4.40;1.80;;;25.00;70.20;;;;;;6854622;28;20476;-78
2022/07/11 15:44:49;;;;;;;5.97;2.67;;;25.10;71.00;;;;;;6855137;28;20862;-78
2022/07/11 15:48:11;;;;;;;11.48;6.95;;;25.00;72.10;;;;;;6854830;28;20475;-79
2022/07/11 15:51:35;;;;;;;4.18;1.70;;;24.90;69.80;;;;;;6857358;28;20898;-76
2022/07/11 15:54:57;;;;;;;3.67;1.80;;;25.00;69.90;;;;;;6857885;28;20435;-78
2022/07/11 15:58:21;;;;;;;3.92;1.60;;;25.00;70.20;;;;;;6858877;28;20475;-79
2022/07/11 16:01:43;;;;;;;3.58;1.67;;;25.10;70.20;;;;;;6859469;28;20443;-76
2022/07/11 16:05:07;;;;;;;2.67;1.40;;;25.30;70.90;;;;;;6866072;28;20527;-78
2022/07/11 16:08:31;;;;;;;3.10;1.40;;;25.30;70.50;;;;;;6870705;28;20447;-79
2022/07/11 16:11:53;;;;;;;5.30;1.50;;;25.40;70.10;;;;;;6859525;28;20454;-78
2022/07/11 16:15:18;;;;;;;4.27;1.70;;;25.20;68.90;;;;;;6857194;28;20500;-77
2022/07/11 16:18:40;;;;;;;3.65;1.60;;;25.20;69.80;;;;;;6864323;28;21008;-77
2022/07/11 16:22:03;;;;;;;4.07;1.60;;;25.30;69.00;;;;;;6869192;28;20993;-80
2022/07/11 16:25:28;;;;;;;4.30;1.50;;;25.80;69.00;;;;;;6854735;28;20949;-79
2022/07/11 16:28:54;;;;;;;4.38;1.73;;;26.20;69.00;;;;;;6859969;28;20502;-77
2022/07/11 16:32:18;;;;;;;3.63;1.60;;;26.70;66.90;;;;;;6861081;28;20551;-79
2022/07/11 16:35:40;;;;;;;3.70;1.55;;;26.90;65.50;;;;;;6858414;28;20447;-78
2022/07/11 16:46:23;;;;;;;4.15;1.50;;;27.90;63.30;;;;;;6862207;28;20436;-77
2022/07/11 16:49:45;;;;;;;3.47;1.45;;;28.00;63.10;;;;;;6858899;28;20492;-75
2022/07/11 16:53:09;;;;;;;3.37;1.47;;;27.70;62.30;;;;;;6857729;28;20488;-79
2022/07/11 16:56:34;;;;;;;3.88;1.33;;;27.70;62.00;;;;;;6857895;28;20507;-76
2022/07/11 16:59:59;;;;;;;4.72;1.40;;;27.90;62.60;;;;;;6832589;28;20438;-77
2022/07/11 17:03:21;;;;;;;4.30;1.50;;;28.30;60.50;;;;;;6857553;28;20440;-78
2022/07/11 17:06:44;;;;;;;4.10;1.50;;;28.50;61.10;;;;;;6857326;28;20941;-80
2022/07/11 17:10:07;;;;;;;3.50;1.42;;;28.80;63.00;;;;;;6856860;28;20479;-77
2022/07/11 17:13:29;;;;;;;3.38;1.48;;;29.10;61.20;;;;;;6845584;28;20477;-78
2022/07/11 17:16:54;;;;;;;4.90;1.60;;;28.80;60.70;;;;;;6852302;28;20440;-78
2022/07/11 17:20:16;;;;;;;2.70;1.30;;;28.50;61.40;;;;;;6849841;28;20471;-78
2022/07/11 17:23:39;;;;;;;4.00;1.70;;;28.40;61.60;;;;;;6854529;28;20444;-77
2022/07/11 17:27:01;;;;;;;3.20;1.50;;;28.50;61.80;;;;;;6855632;28;20451;-79
2022/07/11 17:30:23;;;;;;;3.33;1.70;;;28.60;60.80;;;;;;6854380;28;20435;-79
2022/07/11 17:33:47;;;;;;;3.30;1.50;;;28.10;62.10;;;;;;6860300;28;20436;-79
2022/07/11 17:37:09;;;;;;;4.53;1.80;;;28.20;62.30;;;;;;6856712;28;20473;-79
2022/07/11 17:40:32;;;;;;;3.53;1.55;;;28.10;62.60;;;;;;6857838;28;20443;-78
2022/07/11 17:43:54;;;;;;;4.00;1.60;;;28.00;62.50;;;;;;6853948;28;20850;-79
2022/07/11 17:47:17;;;;;;;3.73;1.47;;;28.10;62.60;;;;;;6866604;28;20512;-80
2022/07/11 17:50:41;;;;;;;3.50;1.60;;;27.80;61.80;;;;;;6863761;28;21183;-80
2022/07/11 17:54:03;;;;;;;4.07;1.58;;;27.90;61.80;;;;;;6856900;28;20449;-79
2022/07/11 17:57:25;;;;;;;3.23;1.73;;;28.00;61.80;;;;;;6857315;28;20951;-77
2022/07/11 18:00:47;;;;;;;3.30;1.70;;;27.90;62.10;;;;;;6870618;28;20936;-79
2022/07/11 18:04:09;;;;;;;3.67;1.40;;;28.00;62.80;;;;;;6870295;28;20471;-78
2022/07/11 18:07:33;;;;;;;4.65;1.60;;;28.20;63.20;;;;;;6860461;28;20450;-79
2022/07/11 18:10:55;;;;;;;2.97;1.50;;;28.20;61.10;;;;;;6864282;28;20473;-79
2022/07/11 18:14:18;;;;;;;3.95;1.70;;;28.20;62.60;;;;;;6857199;28;20799;-78